Time;durP1;ratioP1;P1;durP2;ratioP2;P2;SDS_P1;SDS_P2;PMS_P1;PMS_P2;Temp;Humidity;BMP_temperature;BMP_pressure;BME280_temperature;BME280_humidity;BME280_pressure;Samples;Min_cycle;Max_cycle;Signal;HPM_P1;HPM_P2
2022/04/12 00:01:04;;;;;;;;;;;;;;;8.59;100.00;100492.88;5056510;28;20311;-79
2022/04/12 00:03:30;;;;;;;;;;;;;;;8.63;100.00;100497.38;5101952;28;19920;-79
2022/04/12 00:05:55;;;;;;;;;;;;;;;8.65;100.00;100507.06;5083909;28;20386;-79
2022/04/12 00:08:22;;;;;;;;;;;;;;;8.62;100.00;100503.50;5076124;28;19926;-79
2022/04/12 00:10:48;;;;;;;;;;;;;;;8.63;100.00;100515.75;5092450;28;19997;-79
2022/04/12 00:13:18;;;;;;;;;;;;;;;8.60;100.00;100520.88;5055153;28;19924;-79
2022/04/12 00:15:44;;;;;;;;;;;;;;;8.57;100.00;100520.78;5094259;28;20013;-79
2022/04/12 00:20:53;;;;;;;;;;;;;;;8.59;100.00;100526.09;5091830;28;20016;-77
2022/04/12 00:23:20;;;;;;;;;;;;;;;8.56;100.00;100529.50;5065361;28;19967;-76
2022/04/12 00:25:45;;;;;;;;;;;;;;;8.55;100.00;100526.81;5094604;28;19923;-77
2022/04/12 00:28:12;;;;;;;;;;;;;;;8.44;100.00;100518.53;5059296;28;19924;-77
2022/04/12 00:30:38;;;;;;;;;;;;;;;8.38;100.00;100520.88;5073353;28;20307;-78
2022/04/12 00:33:04;;;;;;;;;;;;;;;8.35;100.00;100505.91;5089190;28;19982;-77
2022/04/12 00:35:30;;;;;;;;;;;;;;;8.31;100.00;100506.59;5081993;28;20442;-78
2022/04/12 00:37:56;;;;;;;;;;;;;;;8.32;100.00;100502.25;5077898;28;20272;-77
2022/04/12 00:40:24;;;;;;;;;;;;;;;8.26;100.00;100502.91;5075898;28;19978;-78
2022/04/12 00:42:51;;;;;;;;;;;;;;;8.21;100.00;100510.59;5079821;28;20283;-77
2022/04/12 00:45:16;;;;;;;;;;;;;;;8.15;100.00;100499.84;5088513;28;19920;-78
2022/04/12 00:47:41;;;;;;;;;;;;;;;8.10;100.00;100501.41;5089744;28;19927;-77
2022/04/12 00:50:07;;;;;;;;;;;;;;;8.08;100.00;100489.97;5094744;28;19924;-78
2022/04/12 00:52:36;;;;;;;;;;;;;;;8.02;100.00;100482.75;5093518;28;20020;-78
2022/04/12 00:55:03;;;;;;;;;;;;;;;7.96;100.00;100468.50;5078056;28;19920;-78
2022/04/12 00:57:29;;;;;;;;;;;;;;;8.00;100.00;100481.78;5093004;28;19971;-78
2022/04/12 00:59:55;;;;;;;;;;;;;;;7.95;100.00;100474.56;5098725;28;20014;-78
2022/04/12 01:02:21;;;;;;;;;;;;;;;7.91;100.00;100469.19;5076105;28;19974;-78
2022/04/12 01:04:47;;;;;;;;;;;;;;;7.86;100.00;100472.44;5058990;28;19956;-78
2022/04/12 01:07:14;;;;;;;;;;;;;;;7.82;100.00;100462.69;5094659;28;19919;-78
2022/04/12 01:09:39;;;;;;;;;;;;;;;7.84;100.00;100463.63;5079110;28;19920;-78
2022/04/12 01:12:09;;;;;;;;;;;;;;;7.87;100.00;100464.66;5105424;28;19920;-77
2022/04/12 01:14:35;;;;;;;;;;;;;;;7.88;100.00;100461.19;5074986;28;19955;-77
2022/04/12 01:17:05;;;;;;;;;;;;;;;7.83;100.00;100454.88;5080865;28;19959;-78
2022/04/12 01:19:30;;;;;;;;;;;;;;;7.81;100.00;100445.16;5099360;28;19974;-78
2022/04/12 01:22:17;;;;;;;;;;;;;;;7.73;100.00;100448.34;5078801;28;20395;-78
2022/04/12 01:24:43;;;;;;;;;;;;;;;7.69;100.00;100461.28;5084061;28;19920;-78
2022/04/12 01:27:08;;;;;;;;;;;;;;;7.67;100.00;100457.69;5108582;28;20387;-78
2022/04/12 01:29:34;;;;;;;;;;;;;;;7.57;100.00;100448.56;5085004;28;19920;-78
2022/04/12 01:32:01;;;;;;;;;;;;;;;7.55;100.00;100445.88;5100082;28;19927;-78
2022/04/12 01:34:28;;;;;;;;;;;;;;;7.53;100.00;100434.44;5078987;28;19928;-78
2022/04/12 01:36:53;;;;;;;;;;;;;;;7.51;100.00;100422.13;5091971;28;20048;-77
2022/04/12 01:39:18;;;;;;;;;;;;;;;7.48;100.00;100430.72;5096285;28;20019;-78
2022/04/12 01:41:44;;;;;;;;;;;;;;;7.45;100.00;100422.75;5098807;28;20353;-78
2022/04/12 01:44:10;;;;;;;;;;;;;;;7.40;100.00;100426.91;5080813;28;20424;-78
2022/04/12 01:46:36;;;;;;;;;;;;;;;7.37;100.00;100404.09;5089194;28;19924;-78
2022/04/12 01:49:01;;;;;;;;;;;;;;;7.37;100.00;100408.44;5080558;28;20298;-78
2022/04/12 01:51:28;;;;;;;;;;;;;;;7.37;100.00;100414.56;5096666;28;19928;-78
2022/04/12 01:53:54;;;;;;;;;;;;;;;7.30;100.00;100409.91;5094659;28;19926;-78
2022/04/12 01:56:19;;;;;;;;;;;;;;;7.28;100.00;100415.91;5097003;28;19955;-78
2022/04/12 01:58:45;;;;;;;;;;;;;;;7.25;100.00;100416.66;5098833;28;19927;-78
2022/04/12 02:01:11;;;;;;;;;;;;;;;7.14;100.00;100405.72;5087344;28;20014;-77
2022/04/12 02:03:38;;;;;;;;;;;;;;;7.04;100.00;100390.47;5096995;28;19920;-78
2022/04/12 02:06:05;;;;;;;;;;;;;;;7.04;100.00;100384.31;5115005;28;19927;-78
2022/04/12 02:08:30;;;;;;;;;;;;;;;7.05;100.00;100384.41;5078749;28;19923;-78
2022/04/12 02:10:55;;;;;;;;;;;;;;;7.00;100.00;100384.19;5076281;28;20010;-78
2022/04/12 02:13:21;;;;;;;;;;;;;;;6.97;100.00;100378.84;5076592;28;20304;-77
2022/04/12 02:15:46;;;;;;;;;;;;;;;6.91;100.00;100375.06;5081052;28;19920;-77
2022/04/12 02:18:11;;;;;;;;;;;;;;;6.91;100.00;100372.44;5097696;28;19920;-78
2022/04/12 02:20:37;;;;;;;;;;;;;;;6.81;100.00;100371.16;5082020;28;19931;-78
2022/04/12 02:23:02;;;;;;;;;;;;;;;6.81;100.00;100363.31;5073772;28;20097;-78
2022/04/12 02:25:27;;;;;;;;;;;;;;;6.82;100.00;100352.91;5081823;28;19916;-77
2022/04/12 02:27:53;;;;;;;;;;;;;;;6.75;100.00;100335.16;5098396;28;20002;-77
2022/04/12 02:30:18;;;;;;;;;;;;;;;6.77;100.00;100330.84;5080757;28;20298;-78
2022/04/12 02:32:44;;;;;;;;;;;;;;;6.79;100.00;100338.78;5114419;28;19970;-77
2022/04/12 02:35:09;;;;;;;;;;;;;;;6.71;100.00;100340.19;5081822;28;20324;-78
2022/04/12 02:37:35;;;;;;;;;;;;;;;6.66;100.00;100342.59;5083905;28;19919;-77
2022/04/12 02:40:02;;;;;;;;;;;;;;;6.65;100.00;100330.38;5097680;28;19912;-77
2022/04/12 02:42:27;;;;;;;;;;;;;;;6.58;100.00;100325.69;5096644;28;19963;-77
2022/04/12 02:44:52;;;;;;;;;;;;;;;6.56;100.00;100316.88;5086438;28;19966;-78
2022/04/12 02:47:18;;;;;;;;;;;;;;;6.52;100.00;100304.47;5088088;28;19920;-77
2022/04/12 02:49:43;;;;;;;;;;;;;;;6.50;100.00;100300.91;5076755;28;20015;-77
2022/04/12 02:52:08;;;;;;;;;;;;;;;6.49;100.00;100302.63;5090550;28;19920;-77
2022/04/12 02:54:34;;;;;;;;;;;;;;;6.45;100.00;100296.38;5096622;28;19965;-78
2022/04/12 02:56:59;;;;;;;;;;;;;;;6.43;100.00;100290.19;5085193;28;19988;-77
2022/04/12 02:59:24;;;;;;;;;;;;;;;6.43;100.00;100289.28;5097333;28;20424;-77
2022/04/12 03:01:50;;;;;;;;;;;;;;;6.44;100.00;100291.06;5103191;28;19920;-77
2022/04/12 03:04:15;;;;;;;;;;;;;;;6.47;100.00;100280.75;5058534;28;19932;-78
2022/04/12 03:06:40;;;;;;;;;;;;;;;6.43;100.00;100284.97;5087013;28;20292;-77
2022/04/12 03:09:07;;;;;;;;;;;;;;;6.44;100.00;100285.84;5077120;28;20014;-77
2022/04/12 03:11:34;;;;;;;;;;;;;;;6.45;100.00;100288.53;5077573;28;19916;-78
2022/04/12 03:14:01;;;;;;;;;;;;;;;6.42;100.00;100283.16;5096708;28;19920;-77
2022/04/12 03:16:28;;;;;;;;;;;;;;;6.41;100.00;100275.25;5092508;28;19974;-78
2022/04/12 03:18:53;;;;;;;;;;;;;;;6.37;100.00;100278.53;5078825;28;20370;-77
2022/04/12 03:21:18;;;;;;;;;;;;;;;6.36;100.00;100285.50;5076499;28;19916;-78
2022/04/12 03:23:44;;;;;;;;;;;;;;;6.29;100.00;100291.28;5092320;28;19926;-77
2022/04/12 03:26:10;;;;;;;;;;;;;;;6.22;100.00;100282.28;5098244;28;19955;-77
2022/04/12 03:28:35;;;;;;;;;;;;;;;6.17;100.00;100281.19;5080718;28;20398;-77
2022/04/12 03:31:01;;;;;;;;;;;;;;;6.13;100.00;100276.63;5096650;28;20006;-78
2022/04/12 03:33:27;;;;;;;;;;;;;;;6.13;100.00;100265.31;5082131;28;19927;-78
2022/04/12 03:35:53;;;;;;;;;;;;;;;6.19;100.00;100252.50;5091132;28;19924;-78
2022/04/12 03:38:19;;;;;;;;;;;;;;;6.27;100.00;100253.72;5078339;28;19930;-77
2022/04/12 03:40:46;;;;;;;;;;;;;;;6.34;100.00;100247.94;5095604;28;19920;-77
2022/04/12 03:43:17;;;;;;;;;;;;;;;6.41;100.00;100236.00;5078935;28;20026;-78
2022/04/12 03:45:44;;;;;;;;;;;;;;;6.44;100.00;100249.22;5094537;28;20463;-78
2022/04/12 03:48:10;;;;;;;;;;;;;;;6.45;100.00;100249.28;5077678;28;20286;-78
2022/04/12 03:50:35;;;;;;;;;;;;;;;6.50;100.00;100259.06;5077597;28;19998;-77
2022/04/12 03:53:02;;;;;;;;;;;;;;;6.50;100.00;100270.41;5085508;28;20447;-78
2022/04/12 03:55:30;;;;;;;;;;;;;;;6.53;100.00;100277.50;5095719;28;19920;-79
2022/04/12 03:57:57;;;;;;;;;;;;;;;6.54;100.00;100297.59;5089187;28;19920;-77
2022/04/12 04:00:22;;;;;;;;;;;;;;;6.50;100.00;100303.53;5081235;28;19929;-78
2022/04/12 04:02:47;;;;;;;;;;;;;;;6.47;100.00;100317.38;5090564;28;19920;-78
2022/04/12 04:05:13;;;;;;;;;;;;;;;6.44;100.00;100305.03;5095141;28;19920;-78
2022/04/12 04:07:39;;;;;;;;;;;;;;;6.43;100.00;100300.66;5101437;28;20427;-78
2022/04/12 04:10:05;;;;;;;;;;;;;;;6.37;100.00;100300.38;5099895;28;19959;-77
2022/04/12 04:12:30;;;;;;;;;;;;;;;6.35;100.00;100285.44;5107883;28;19916;-77
2022/04/12 04:14:56;;;;;;;;;;;;;;;6.34;100.00;100283.63;5056188;28;19925;-77
2022/04/12 04:17:22;;;;;;;;;;;;;;;6.35;100.00;100278.47;5080204;28;19925;-78
2022/04/12 04:19:47;;;;;;;;;;;;;;;6.33;100.00;100261.84;5075572;28;19920;-78
2022/04/12 04:22:12;;;;;;;;;;;;;;;6.32;100.00;100244.34;5092351;28;20268;-78
2022/04/12 04:24:38;;;;;;;;;;;;;;;6.29;100.00;100228.53;5095634;28;19977;-78
2022/04/12 04:27:11;;;;;;;;;;;;;;;6.32;100.00;100233.88;5086703;28;19916;-78
2022/04/12 04:29:36;;;;;;;;;;;;;;;6.31;100.00;100232.13;5081564;28;20007;-78
2022/04/12 04:32:02;;;;;;;;;;;;;;;6.26;100.00;100224.06;5076026;28;19963;-78
2022/04/12 04:34:27;;;;;;;;;;;;;;;6.23;100.00;100226.56;5093216;28;19931;-78
2022/04/12 04:37:01;;;;;;;;;;;;;;;6.20;100.00;100228.13;5092713;28;19916;-78
2022/04/12 04:39:28;;;;;;;;;;;;;;;6.17;100.00;100225.38;5092696;28;19916;-78
2022/04/12 04:41:53;;;;;;;;;;;;;;;6.16;100.00;100218.38;5092087;28;19923;-78
2022/04/12 04:44:19;;;;;;;;;;;;;;;6.08;100.00;100211.09;5093314;28;19916;-78
2022/04/12 04:46:44;;;;;;;;;;;;;;;6.02;100.00;100202.97;5075802;28;19962;-78
2022/04/12 04:49:10;;;;;;;;;;;;;;;6.04;100.00;100200.44;5058901;28;19920;-77
2022/04/12 04:51:37;;;;;;;;;;;;;;;6.04;100.00;100203.94;5058916;28;19931;-77
2022/04/12 04:54:03;;;;;;;;;;;;;;;5.94;100.00;100205.22;5075336;28;19917;-78
2022/04/12 04:56:28;;;;;;;;;;;;;;;5.86;100.00;100185.69;5076042;28;19916;-78
2022/04/12 04:58:54;;;;;;;;;;;;;;;5.84;100.00;100170.78;5075410;28;19973;-78
2022/04/12 05:01:20;;;;;;;;;;;;;;;5.77;100.00;100166.13;5079387;28;20252;-79
2022/04/12 05:03:47;;;;;;;;;;;;;;;5.78;100.00;100154.81;5079658;28;19916;-79
2022/04/12 05:06:13;;;;;;;;;;;;;;;5.78;100.00;100150.50;5096513;28;19939;-78
2022/04/12 05:08:38;;;;;;;;;;;;;;;5.79;100.00;100151.41;5079224;28;20372;-76
2022/04/12 05:11:03;;;;;;;;;;;;;;;5.75;100.00;100151.25;5078699;28;19927;-78
2022/04/12 05:13:30;;;;;;;;;;;;;;;5.73;100.00;100139.88;5097095;28;19970;-77
2022/04/12 05:15:55;;;;;;;;;;;;;;;5.74;100.00;100139.00;5078815;28;19924;-77
2022/04/12 05:18:20;;;;;;;;;;;;;;;5.74;100.00;100139.00;5079081;28;19917;-77
2022/04/12 05:20:45;;;;;;;;;;;;;;;5.73;100.00;100137.25;5062429;28;20027;-77
2022/04/12 05:23:11;;;;;;;;;;;;;;;5.76;100.00;100120.78;5093704;28;19916;-77
2022/04/12 05:25:36;;;;;;;;;;;;;;;5.78;100.00;100120.88;5094279;28;20430;-76
2022/04/12 05:28:01;;;;;;;;;;;;;;;5.80;100.00;100116.63;5095668;28;19948;-76
2022/04/12 05:30:27;;;;;;;;;;;;;;;5.86;100.00;100115.16;5091990;28;20354;-77
2022/04/12 05:32:53;;;;;;;;;;;;;;;6.01;100.00;100117.56;5083498;28;19973;-75
2022/04/12 05:35:19;;;;;;;;;;;;;;;6.42;100.00;100120.13;5087785;28;20015;-75
2022/04/12 05:37:45;;;;;;;;;;;;;;;6.94;100.00;100118.69;5088928;28;20011;-75
2022/04/12 05:40:11;;;;;;;;;;;;;;;7.22;100.00;100153.78;5095588;28;19923;-75
2022/04/12 05:42:38;;;;;;;;;;;;;;;7.86;100.00;100176.22;5107022;28;20420;-74
2022/04/12 05:45:03;;;;;;;;;;;;;;;8.66;100.00;100247.25;5087903;28;19916;-75
2022/04/12 05:47:38;;;;;;;;;;;;;;;9.40;100.00;100282.91;5076755;28;20078;-75
2022/04/12 05:50:04;;;;;;;;;;;;;;;10.03;100.00;100330.44;5089949;28;19924;-76
2022/04/12 05:52:29;;;;;;;;;;;;;;;10.11;100.00;100377.13;5094481;28;20030;-75
2022/04/12 05:54:55;;;;;;;;;;;;;;;10.15;100.00;100403.59;5093636;28;19997;-76
2022/04/12 05:57:22;;;;;;;;;;;;;;;10.49;100.00;100406.38;5092393;28;20410;-77
2022/04/12 05:59:48;;;;;;;;;;;;;;;10.43;100.00;100427.25;5094127;28;19920;-76
2022/04/12 06:02:13;;;;;;;;;;;;;;;10.68;100.00;100434.13;5080072;28;20386;-76
2022/04/12 06:04:40;;;;;;;;;;;;;;;10.90;100.00;100447.03;5076759;28;19916;-76
2022/04/12 06:07:05;;;;;;;;;;;;;;;10.50;100.00;100453.81;5075661;28;19996;-76
2022/04/12 06:09:30;;;;;;;;;;;;;;;11.14;100.00;100438.94;5060938;28;19970;-76
2022/04/12 06:11:55;;;;;;;;;;;;;;;11.14;100.00;100435.41;5075069;28;20094;-76
2022/04/12 06:14:22;;;;;;;;;;;;;;;11.04;100.00;100431.63;5078235;28;19920;-73
2022/04/12 06:16:47;;;;;;;;;;;;;;;11.33;100.00;100444.69;5081249;28;19924;-74
2022/04/12 06:19:12;;;;;;;;;;;;;;;11.30;100.00;100457.78;5095488;28;19916;-73
2022/04/12 06:21:37;;;;;;;;;;;;;;;11.94;100.00;100452.41;5112458;28;19963;-74
2022/04/12 06:24:03;;;;;;;;;;;;;;;12.13;100.00;100473.06;5095389;28;19982;-74
2022/04/12 06:26:29;;;;;;;;;;;;;;;11.56;100.00;100487.47;5079866;28;19920;-77
2022/04/12 06:28:54;;;;;;;;;;;;;;;11.64;100.00;100479.78;5077018;28;19927;-76
2022/04/12 06:31:19;;;;;;;;;;;;;;;11.61;100.00;100487.59;5090573;28;19942;-77
2022/04/12 06:33:45;;;;;;;;;;;;;;;10.95;100.00;100476.16;5084979;28;19978;-76
2022/04/12 06:36:10;;;;;;;;;;;;;;;10.99;100.00;100456.06;5094427;28;20006;-76
2022/04/12 06:38:36;;;;;;;;;;;;;;;11.41;100.00;100469.50;5076148;28;20364;-75
2022/04/12 06:41:01;;;;;;;;;;;;;;;11.86;100.00;100481.19;5060114;28;19973;-76
2022/04/12 06:43:27;;;;;;;;;;;;;;;11.08;100.00;100480.91;5076053;28;19927;-76
2022/04/12 06:45:52;;;;;;;;;;;;;;;11.25;100.00;100470.84;5075407;28;19916;-76
2022/04/12 06:48:18;;;;;;;;;;;;;;;11.23;100.00;100469.00;5075947;28;19918;-77
2022/04/12 06:50:44;;;;;;;;;;;;;;;11.45;100.00;100474.03;5075851;28;19974;-77
2022/04/12 06:53:09;;;;;;;;;;;;;;;11.57;100.00;100462.00;5074683;28;19916;-76
2022/04/12 06:55:35;;;;;;;;;;;;;;;12.27;100.00;100473.41;5075530;28;19916;-76
2022/04/12 06:58:00;;;;;;;;;;;;;;;12.08;100.00;100487.91;5058608;28;20274;-76
2022/04/12 07:00:26;;;;;;;;;;;;;;;11.94;100.00;100468.22;5057803;28;20365;-76
2022/04/12 07:02:51;;;;;;;;;;;;;;;11.53;100.00;100473.31;5074726;28;19916;-76
2022/04/12 07:05:16;;;;;;;;;;;;;;;11.61;100.00;100466.50;5075471;28;20069;-77
2022/04/12 07:07:43;;;;;;;;;;;;;;;11.84;100.00;100462.69;5059211;28;19927;-77
2022/04/12 07:10:10;;;;;;;;;;;;;;;11.88;100.00;100473.31;5076587;28;19926;-77
2022/04/12 07:12:35;;;;;;;;;;;;;;;11.68;100.00;100471.97;5076279;28;20364;-78
2022/04/12 07:15:02;;;;;;;;;;;;;;;11.60;100.00;100449.78;5075806;28;19923;-76
2022/04/12 07:17:27;;;;;;;;;;;;;;;12.10;100.00;100451.88;5076128;28;19924;-78
2022/04/12 07:19:56;;;;;;;;;;;;;;;12.33;100.00;100456.81;5075650;28;20380;-77
2022/04/12 07:22:43;;;;;;;;;;;;;;;;;;;;;
2022/04/12 07:25:11;;;;;;;;;;;;;;;11.98;100.00;100475.38;5077689;28;20410;-76
2022/04/12 07:27:37;;;;;;;;;;;;;;;12.41;100.00;100460.50;5075741;28;19923;-75
2022/04/12 07:30:06;;;;;;;;;;;;;;;12.41;100.00;100464.91;5075387;28;19923;-76
2022/04/12 07:32:31;;;;;;;;;;;;;;;12.27;100.00;100457.56;5093900;28;19935;-76
2022/04/12 07:34:57;;;;;;;;;;;;;;;12.15;100.00;100457.28;5075067;28;20664;-76
2022/04/12 07:37:23;;;;;;;;;;;;;;;12.44;100.00;100443.84;5075530;28;19947;-76
2022/04/12 07:39:48;;;;;;;;;;;;;;;12.66;100.00;100467.25;5075511;28;20356;-74
2022/04/12 07:42:14;;;;;;;;;;;;;;;12.94;100.00;100467.78;5074821;28;19952;-76
2022/04/12 07:44:39;;;;;;;;;;;;;;;12.71;100.00;100467.34;5058851;28;19944;-76
2022/04/12 07:47:05;;;;;;;;;;;;;;;13.24;100.00;100474.56;5058404;28;19923;-76
2022/04/12 07:49:30;;;;;;;;;;;;;;;13.38;100.00;100467.81;5074509;28;19921;-76
2022/04/12 07:51:55;;;;;;;;;;;;;;;13.23;100.00;100484.22;5074221;28;19967;-77
2022/04/12 07:54:22;;;;;;;;;;;;;;;13.50;100.00;100472.44;5058539;28;20291;-76
2022/04/12 07:56:48;;;;;;;;;;;;;;;13.26;100.00;100462.25;5074559;28;19920;-77
2022/04/12 07:59:13;;;;;;;;;;;;;;;13.71;100.00;100452.50;5075318;28;19923;-77
2022/04/12 08:01:38;;;;;;;;;;;;;;;13.73;100.00;100459.59;5075376;28;20405;-76
2022/04/12 08:04:04;;;;;;;;;;;;;;;14.00;100.00;100482.97;5074489;28;20356;-77
2022/04/12 08:06:29;;;;;;;;;;;;;;;14.20;100.00;100495.66;5058608;28;19960;-77
2022/04/12 08:08:54;;;;;;;;;;;;;;;13.93;100.00;100491.69;5074363;28;19916;-77
2022/04/12 08:11:20;;;;;;;;;;;;;;;14.03;100.00;100508.63;5091797;28;20034;-76
2022/04/12 08:13:46;;;;;;;;;;;;;;;14.76;100.00;100522.97;5074760;28;20010;-77
2022/04/12 08:16:12;;;;;;;;;;;;;;;14.56;100.00;100711.69;5075362;28;19954;-77
2022/04/12 08:18:38;;;;;;;;;;;;;;;15.08;100.00;100760.28;5092929;28;19920;-77
2022/04/12 08:21:03;;;;;;;;;;;;;;;15.18;100.00;100798.47;5074901;28;19916;-77
2022/04/12 08:23:31;;;;;;;;;;;;;;;15.27;100.00;100810.97;5075216;28;20214;-77
2022/04/12 08:25:58;;;;;;;;;;;;;;;15.71;100.00;100810.78;5074745;28;19916;-77
2022/04/12 08:28:23;;;;;;;;;;;;;;;16.41;100.00;100817.91;5093315;28;20311;-77
2022/04/12 08:30:49;;;;;;;;;;;;;;;16.05;100.00;100820.97;5074552;28;20049;-77
2022/04/12 08:33:16;;;;;;;;;;;;;;;16.21;100.00;100828.28;5074973;28;19920;-77
2022/04/12 08:35:42;;;;;;;;;;;;;;;16.24;100.00;100832.75;5074618;28;19916;-77
2022/04/12 08:38:08;;;;;;;;;;;;;;;16.55;100.00;100825.16;5056008;28;19924;-77
2022/04/12 08:40:33;;;;;;;;;;;;;;;16.96;100.00;100836.22;5073810;28;19939;-78
2022/04/12 08:42:59;;;;;;;;;;;;;;;16.74;100.00;100832.44;5074215;28;20437;-77
2022/04/12 08:45:25;;;;;;;;;;;;;;;16.95;100.00;100836.19;5074542;28;20391;-78
2022/04/12 08:47:51;;;;;;;;;;;;;;;17.17;100.00;100819.56;5074094;28;19916;-77
2022/04/12 08:50:19;;;;;;;;;;;;;;;16.75;100.00;100823.59;5092497;28;19928;-77
2022/04/12 08:52:45;;;;;;;;;;;;;;;17.05;100.00;100825.66;5074437;28;19920;-77
2022/04/12 08:55:12;;;;;;;;;;;;;;;16.13;100.00;100816.69;5074565;28;19916;-77
2022/04/12 08:57:37;;;;;;;;;;;;;;;16.30;100.00;100804.47;5092487;28;19989;-78
2022/04/12 09:00:04;;;;;;;;;;;;;;;16.50;100.00;100795.84;5073992;28;19916;-78
2022/04/12 09:02:30;;;;;;;;;;;;;;;16.07;100.00;100771.44;5074633;28;20042;-77
2022/04/12 09:04:57;;;;;;;;;;;;;;;16.15;100.00;100754.69;5074506;28;19970;-76
2022/04/12 09:07:24;;;;;;;;;;;;;;;16.46;100.00;100747.06;5074522;28;19919;-76
2022/04/12 09:09:49;;;;;;;;;;;;;;;16.31;100.00;100754.88;5057897;28;19927;-76
2022/04/12 09:12:14;;;;;;;;;;;;;;;16.54;100.00;100767.53;5092773;28;19916;-76
2022/04/12 09:14:43;;;;;;;;;;;;;;;16.21;100.00;100763.63;5074464;28;20309;-76
2022/04/12 09:17:10;;;;;;;;;;;;;;;16.41;100.00;100759.44;5074601;28;19930;-77
2022/04/12 09:19:42;;;;;;;;;;;;;;;16.64;100.00;100734.81;5074214;28;19912;-76
2022/04/12 09:22:15;;;;;;;;;;;;;;;16.38;100.00;100727.50;5074246;28;19920;-77
2022/04/12 09:24:50;;;;;;;;;;;;;;;16.43;100.00;100714.28;5074880;28;19922;-77
2022/04/12 09:27:17;;;;;;;;;;;;;;;16.34;100.00;100699.13;5074209;28;19962;-77
2022/04/12 09:29:46;;;;;;;;;;;;;;;16.52;100.00;100709.03;5074758;28;19923;-76
2022/04/12 09:32:14;;;;;;;;;;;;;;;16.19;100.00;100717.56;5092649;28;20215;-77
2022/04/12 09:34:40;;;;;;;;;;;;;;;16.30;100.00;100694.66;5074515;28;19924;-78
2022/04/12 09:37:19;;;;;;;;;;;;;;;16.51;100.00;100694.88;5074451;28;19951;-78
2022/04/12 09:40:04;;;;;;;;;;;;;;;16.33;100.00;100708.88;5092593;28;19923;-77
2022/04/12 09:42:35;;;;;;;;;;;;;;;16.65;100.00;100702.06;5073724;28;19916;-76
2022/04/12 09:45:06;;;;;;;;;;;;;;;16.46;100.00;100693.03;5073106;28;20019;-77
2022/04/12 09:47:33;;;;;;;;;;;;;;;16.73;100.00;100716.31;5078100;28;19923;-77
2022/04/12 09:50:02;;;;;;;;;;;;;;;16.95;100.00;100724.50;5077874;28;19920;-77
2022/04/12 09:52:29;;;;;;;;;;;;;;;17.05;100.00;100731.69;5078274;28;20257;-77
2022/04/12 09:54:56;;;;;;;;;;;;;;;16.96;100.00;100718.31;5078073;28;19950;-77
2022/04/12 09:57:22;;;;;;;;;;;;;;;16.98;100.00;100711.22;5077801;28;20059;-77
2022/04/12 09:59:47;;;;;;;;;;;;;;;16.97;100.00;100704.13;5077841;28;19988;-77
2022/04/12 10:02:13;;;;;;;;;;;;;;;16.91;100.00;100689.00;5078078;28;19916;-76
2022/04/12 10:04:42;;;;;;;;;;;;;;;17.39;100.00;100697.31;5077951;28;19917;-78
2022/04/12 10:07:08;;;;;;;;;;;;;;;17.37;100.00;100702.63;5095993;28;19920;-77
2022/04/12 10:09:36;;;;;;;;;;;;;;;17.42;100.00;100686.69;5077624;28;19924;-77
2022/04/12 10:12:01;;;;;;;;;;;;;;;17.30;100.00;100676.84;5076892;28;19916;-78
2022/04/12 10:14:31;;;;;;;;;;;;;;;17.25;100.00;100689.25;5095110;28;19923;-78
2022/04/12 10:16:57;;;;;;;;;;;;;;;17.22;100.00;100674.13;5075430;28;19916;-77
2022/04/12 10:19:22;;;;;;;;;;;;;;;17.22;100.00;100655.50;5059726;28;19920;-77
2022/04/12 10:21:48;;;;;;;;;;;;;;;17.30;100.00;100649.34;5076607;28;19920;-78
2022/04/12 10:24:14;;;;;;;;;;;;;;;17.22;100.00;100658.16;5075654;28;20011;-78
2022/04/12 10:26:40;;;;;;;;;;;;;;;17.17;100.00;100649.28;5076919;28;20376;-78
2022/04/12 10:29:06;;;;;;;;;;;;;;;17.34;100.00;100676.00;5076611;28;19946;-78
2022/04/12 10:31:32;;;;;;;;;;;;;;;17.32;100.00;100669.75;5076547;28;19923;-78
2022/04/12 10:34:15;;;;;;;;;;;;;;;17.21;100.00;100672.38;5095121;28;20380;-77
2022/04/12 10:36:54;;;;;;;;;;;;;;;17.25;100.00;100657.31;5077419;28;19916;-77
2022/04/12 10:39:36;;;;;;;;;;;;;;;17.29;100.00;100653.78;5094934;28;20368;-78
2022/04/12 10:42:34;;;;;;;;;;;;;;;;;;;;;
2022/04/12 10:45:04;;;;;;;;;;;;;;;17.83;100.00;100646.00;5079492;28;19920;-77
2022/04/12 10:47:34;;;;;;;;;;;;;;;17.82;100.00;100633.59;5095125;28;19916;-77
2022/04/12 10:50:12;;;;;;;;;;;;;;;;;;;;;
2022/04/12 10:52:38;;;;;;;;;;;;;;;17.65;100.00;100621.97;5094586;28;19924;-77
2022/04/12 10:55:06;;;;;;;;;;;;;;;17.62;100.00;100609.56;5076764;28;19920;-77
2022/04/12 10:57:32;;;;;;;;;;;;;;;17.97;100.00;100618.56;5094332;28;19912;-77
2022/04/12 11:00:27;;;;;;;;;;;;;;;17.88;100.00;100627.38;5076139;28;20437;-77
2022/04/12 11:02:55;;;;;;;;;;;;;;;18.00;100.00;100631.88;5094010;28;20264;-78
2022/04/12 11:05:33;;;;;;;;;;;;;;;18.05;100.00;100648.75;5077071;28;20379;-78
2022/04/12 11:08:10;;;;;;;;;;;;;;;18.06;100.00;100640.78;5076417;28;19917;-77
2022/04/12 11:10:35;;;;;;;;;;;;;;;18.11;100.00;100638.13;5076709;28;19915;-78
2022/04/12 11:13:10;;;;;;;;;;;;;;;18.23;100.00;100634.59;5059502;28;20710;-78
2022/04/12 11:15:37;;;;;;;;;;;;;;;18.25;100.00;100620.34;5076578;28;20002;-78
2022/04/12 11:18:07;;;;;;;;;;;;;;;18.51;100.00;100626.59;5075833;28;19916;-77
2022/04/12 11:20:32;;;;;;;;;;;;;;;18.39;100.00;100635.47;5076093;28;19916;-78
2022/04/12 11:23:05;;;;;;;;;;;;;;;18.33;100.00;100632.81;5076070;28;19920;-78
2022/04/12 11:25:30;;;;;;;;;;;;;;;18.29;100.00;100619.47;5076347;28;19923;-78
2022/04/12 11:28:15;;;;;;;;;;;;;;;18.30;100.00;100618.59;5075652;28;19912;-77
2022/04/12 11:30:49;;;;;;;;;;;;;;;18.73;100.00;100627.47;5077768;28;20368;-78
2022/04/12 11:33:15;;;;;;;;;;;;;;;18.91;100.00;100646.16;5093971;28;19920;-78
2022/04/12 11:35:42;;;;;;;;;;;;;;;19.18;100.00;100660.34;5074743;28;19923;-78
2022/04/12 11:38:13;;;;;;;;;;;;;;;19.16;100.00;100649.66;5075761;28;19923;-77
2022/04/12 11:40:44;;;;;;;;;;;;;;;19.23;100.00;100658.53;5094392;28;19916;-78
2022/04/12 11:43:24;;;;;;;;;;;;;;;19.31;100.00;100650.50;5093753;28;19916;-78
2022/04/12 11:45:58;;;;;;;;;;;;;;;19.36;100.00;100656.72;5075246;28;19916;-77
2022/04/12 11:48:31;;;;;;;;;;;;;;;19.16;100.00;100679.03;5071484;28;19912;-77
2022/04/12 11:51:01;;;;;;;;;;;;;;;19.25;100.00;100677.22;5073862;28;19927;-77
2022/04/12 11:53:28;;;;;;;;;;;;;;;19.31;100.00;100672.75;5075167;28;19920;-76
2022/04/12 11:56:00;;;;;;;;;;;;;;;19.30;100.00;100664.75;5075156;28;19977;-79
2022/04/12 11:58:28;;;;;;;;;;;;;;;19.38;100.00;100660.28;5093418;28;22236;-77
2022/04/12 12:00:53;;;;;;;;;;;;;;;19.43;100.00;100679.84;5093375;28;19939;-77
2022/04/12 12:03:20;;;;;;;;;;;;;;;19.59;100.00;100688.66;5074538;28;19978;-77
2022/04/12 12:05:45;;;;;;;;;;;;;;;19.46;100.00;100694.97;5074542;28;19916;-77
2022/04/12 12:08:11;;;;;;;;;;;;;;;19.52;100.00;100698.50;5092565;28;19984;-77
2022/04/12 12:10:37;;;;;;;;;;;;;;;19.63;100.00;100677.09;5074571;28;19916;-74
2022/04/12 12:13:06;;;;;;;;;;;;;;;19.76;100.00;100680.59;5074450;28;19916;-77
2022/04/12 12:15:33;;;;;;;;;;;;;;;19.84;100.00;100685.94;5091875;28;20006;-76
2022/04/12 12:18:04;;;;;;;;;;;;;;;19.85;100.00;100683.25;5092759;28;19965;-77
2022/04/12 12:20:35;;;;;;;;;;;;;;;20.08;100.00;100674.22;5075382;28;20002;-77
2022/04/12 12:23:04;;;;;;;;;;;;;;;20.40;100.00;100657.97;5074722;28;20019;-76
2022/04/12 12:25:35;;;;;;;;;;;;;;;20.03;100.00;100663.56;5058571;28;19920;-77
2022/04/12 12:28:00;;;;;;;;;;;;;;;20.08;100.00;100671.56;5075190;28;19999;-77
2022/04/12 12:30:27;;;;;;;;;;;;;;;20.13;100.00;100663.50;5093677;28;19959;-77
2022/04/12 12:32:54;;;;;;;;;;;;;;;20.17;100.00;100670.63;5092909;28;19999;-76
2022/04/12 12:35:20;;;;;;;;;;;;;;;20.34;100.00;100674.06;5074639;28;20380;-75
2022/04/12 12:37:46;;;;;;;;;;;;;;;20.22;100.00;100690.19;5072575;28;19923;-79